Time;durP1;ratioP1;P1;durP2;ratioP2;P2;SDS_P1;SDS_P2;PMS_P1;PMS_P2;Temp;Humidity;BMP_temperature;BMP_pressure;BME280_temperature;BME280_humidity;BME280_pressure;Samples;Min_cycle;Max_cycle;Signal;HPM_P1;HPM_P2
2022/02/26 00:01:42;;;;;;;17.05;3.50;;;2.70;99.90;;;;;;5045081;28;20456;-69
2022/02/26 00:04:08;;;;;;;20.60;3.45;;;2.70;99.90;;;;;;5046680;28;20064;-69
2022/02/26 00:06:34;;;;;;;12.10;3.20;;;2.70;99.90;;;;;;5046914;28;20041;-70
2022/02/26 00:09:00;;;;;;;;;;;2.70;99.90;;;;;;5047092;28;20036;-69
2022/02/26 00:11:25;;;;;;;25.20;3.28;;;2.70;99.90;;;;;;5047638;28;19914;-70
2022/02/26 00:13:51;;;;;;;23.75;4.00;;;2.70;99.90;;;;;;5045567;28;20033;-69
2022/02/26 00:16:16;;;;;;;17.52;3.92;;;2.60;99.90;;;;;;5045662;28;20550;-69
2022/02/26 00:18:42;;;;;;;11.02;3.40;;;2.70;99.90;;;;;;5045166;28;20031;-70
2022/02/26 00:21:08;;;;;;;14.95;4.75;;;2.70;99.90;;;;;;5048052;28;20106;-70
2022/02/26 00:23:33;;;;;;;;;;;2.80;99.90;;;;;;5048179;28;20032;-70
2022/02/26 00:25:59;;;;;;;19.65;3.75;;;2.80;99.90;;;;;;5048018;28;19915;-70
2022/02/26 00:28:25;;;;;;;19.92;4.95;;;2.90;99.90;;;;;;5046687;28;20048;-70
2022/02/26 00:30:50;;;;;;;15.85;3.35;;;3.00;99.90;;;;;;5043444;28;20055;-70
2022/02/26 00:33:16;;;;;;;19.77;5.00;;;3.00;99.90;;;;;;5043392;28;20027;-69
2022/02/26 00:35:42;;;;;;;14.45;4.90;;;3.00;99.90;;;;;;5047968;28;20056;-70
2022/02/26 00:38:07;;;;;;;;;;;3.10;99.90;;;;;;5048015;28;20028;-69
2022/02/26 00:40:33;;;;;;;18.23;3.90;;;3.10;99.90;;;;;;5047121;28;19913;-70
2022/02/26 00:42:59;;;;;;;19.60;4.40;;;3.20;99.90;;;;;;5045531;28;20025;-69
2022/02/26 00:45:25;;;;;;;13.52;3.30;;;3.20;99.90;;;;;;5046697;28;20036;-69
2022/02/26 00:47:50;;;;;;;15.15;4.20;;;3.30;99.90;;;;;;5044709;28;20033;-70
2022/02/26 00:50:16;;;;;;;18.17;8.25;;;3.20;99.90;;;;;;5046841;28;20036;-69
2022/02/26 00:52:42;;;;;;;16.60;3.75;;;3.30;99.90;;;;;;5047110;28;20033;-70
2022/02/26 00:55:08;;;;;;;15.93;2.97;;;3.30;99.90;;;;;;5047552;28;20036;-69
2022/02/26 00:57:34;;;;;;;16.65;2.92;;;3.30;99.90;;;;;;5046676;28;20025;-69
2022/02/26 01:00:00;;;;;;;;;;;3.30;99.90;;;;;;5047504;28;20021;-70
2022/02/26 01:02:25;;;;;;;13.18;3.33;;;3.30;99.90;;;;;;5044567;28;19923;-70
2022/02/26 01:04:51;;;;;;;19.02;3.42;;;3.30;99.90;;;;;;5044335;28;20036;-70
2022/02/26 01:07:17;;;;;;;21.50;6.43;;;3.30;99.90;;;;;;5047684;28;20025;-70
2022/02/26 01:09:43;;;;;;;;;;;3.30;99.90;;;;;;5044787;28;20025;-70
2022/02/26 01:12:10;;;;;;;19.85;4.78;;;3.20;99.90;;;;;;5043445;28;19994;-70
2022/02/26 01:14:36;;;;;;;20.83;4.03;;;3.20;99.90;;;;;;5044832;28;20496;-70
2022/02/26 01:17:05;;;;;;;17.45;3.55;;;3.20;99.90;;;;;;5042025;28;20427;-70
2022/02/26 01:19:30;;;;;;;12.00;2.95;;;3.20;99.90;;;;;;5049938;28;20025;-70
2022/02/26 01:21:56;;;;;;;17.17;4.47;;;3.20;99.90;;;;;;5050362;28;20043;-70
2022/02/26 01:24:22;;;;;;;23.02;3.88;;;3.20;99.90;;;;;;5049868;28;20072;-70
2022/02/26 01:26:47;;;;;;;20.58;4.55;;;3.20;99.90;;;;;;5050526;28;20500;-70
2022/02/26 01:29:14;;;;;;;16.60;3.80;;;3.20;99.90;;;;;;5049912;28;20082;-70
2022/02/26 01:31:40;;;;;;;24.13;3.95;;;3.20;99.90;;;;;;5049989;28;20072;-70
2022/02/26 01:34:06;;;;;;;21.73;3.55;;;3.20;99.90;;;;;;5049330;28;20055;-70
2022/02/26 01:36:32;;;;;;;;;;;3.20;99.90;;;;;;5050648;28;20037;-69
2022/02/26 01:38:59;;;;;;;19.42;3.15;;;3.20;99.90;;;;;;5049871;28;19920;-70
2022/02/26 01:41:28;;;;;;;20.52;3.67;;;3.20;99.90;;;;;;5050118;28;20184;-70
2022/02/26 01:43:54;;;;;;;14.68;2.15;;;3.30;99.90;;;;;;5048504;28;20033;-70
2022/02/26 01:46:20;;;;;;;17.83;3.58;;;3.30;99.90;;;;;;5049290;28;20024;-70
2022/02/26 01:48:45;;;;;;;16.80;5.20;;;3.30;99.90;;;;;;5049816;28;20063;-70
2022/02/26 01:51:11;;;;;;;16.88;4.70;;;3.30;99.90;;;;;;5049083;28;20060;-70
2022/02/26 01:53:37;;;;;;;18.30;3.08;;;3.30;99.90;;;;;;5048572;28;20085;-69
2022/02/26 01:56:04;;;;;;;;;;;3.30;99.90;;;;;;5050903;28;20503;-70
2022/02/26 01:58:29;;;;;;;19.20;4.60;;;3.40;99.90;;;;;;5050058;28;19945;-70
2022/02/26 02:00:55;;;;;;;10.63;2.80;;;3.40;99.90;;;;;;5049895;28;20550;-70
2022/02/26 02:03:21;;;;;;;21.92;3.88;;;3.40;99.90;;;;;;5049415;28;20032;-70
2022/02/26 02:05:46;;;;;;;19.00;4.32;;;3.40;99.90;;;;;;5048947;28;20029;-70
2022/02/26 02:08:12;;;;;;;21.15;3.08;;;3.40;99.90;;;;;;5046933;28;20055;-69
2022/02/26 02:10:40;;;;;;;16.55;2.72;;;3.40;99.90;;;;;;5049404;28;20060;-70
2022/02/26 02:13:06;;;;;;;15.57;3.53;;;3.40;99.90;;;;;;5049247;28;20112;-69
2022/02/26 02:15:40;;;;;;;20.67;3.35;;;3.40;99.90;;;;;;5047908;28;20112;-70
2022/02/26 02:18:07;;;;;;;20.95;3.28;;;3.40;99.90;;;;;;5048355;28;20584;-70
2022/02/26 02:20:32;;;;;;;44.75;5.97;;;3.50;99.90;;;;;;5049591;28;20054;-70
2022/02/26 02:22:58;;;;;;;27.85;3.80;;;3.50;99.90;;;;;;5046827;28;20112;-70
2022/02/26 02:25:30;;;;;;;21.90;4.68;;;3.50;99.90;;;;;;5048317;28;20052;-70
2022/02/26 02:27:57;;;;;;;15.48;4.28;;;3.50;99.90;;;;;;5046772;28;20028;-70
2022/02/26 02:30:25;;;;;;;19.23;3.15;;;3.50;99.90;;;;;;5047495;28;20336;-70
2022/02/26 02:32:51;;;;;;;20.85;4.97;;;3.50;99.90;;;;;;5047126;28;20048;-69
2022/02/26 02:35:25;;;;;;;22.58;4.75;;;3.50;99.90;;;;;;5049318;28;20128;-69
2022/02/26 02:37:51;;;;;;;13.60;3.75;;;3.50;99.90;;;;;;5048448;28;20025;-70
2022/02/26 02:40:17;;;;;;;26.33;5.70;;;3.50;99.90;;;;;;5049247;28;20029;-70
2022/02/26 02:42:42;;;;;;;16.88;3.60;;;3.50;99.90;;;;;;5050178;28;20415;-70
2022/02/26 02:45:08;;;;;;;26.65;5.80;;;3.50;99.90;;;;;;5047129;28;20028;-70
2022/02/26 02:47:33;;;;;;;23.70;4.28;;;3.50;99.90;;;;;;5049181;28;20041;-69
2022/02/26 02:49:59;;;;;;;17.77;4.53;;;3.50;99.90;;;;;;5048755;28;20097;-69
2022/02/26 02:52:24;;;;;;;17.65;4.38;;;3.50;99.90;;;;;;5048912;28;20497;-70
2022/02/26 02:54:50;;;;;;;19.27;3.22;;;3.50;99.90;;;;;;5047474;28;20108;-70
2022/02/26 02:57:18;;;;;;;21.20;3.88;;;3.60;99.90;;;;;;5048508;28;20078;-70
2022/02/26 02:59:43;;;;;;;29.48;5.30;;;3.60;99.90;;;;;;5047420;28;20527;-70
2022/02/26 03:02:09;;;;;;;12.15;2.80;;;3.60;99.90;;;;;;5047936;28;20536;-70
2022/02/26 03:04:35;;;;;;;;;;;3.60;99.90;;;;;;5047058;28;20029;-70
2022/02/26 03:07:00;;;;;;;14.93;3.97;;;3.70;99.90;;;;;;5049281;28;19996;-70
2022/02/26 03:09:26;;;;;;;15.98;4.22;;;3.70;99.90;;;;;;5047492;28;20167;-70
2022/02/26 03:11:51;;;;;;;17.80;3.28;;;3.70;99.90;;;;;;5046458;28;20489;-70
2022/02/26 03:14:17;;;;;;;19.58;4.35;;;3.80;99.90;;;;;;5047935;28;20047;-70
2022/02/26 03:16:42;;;;;;;18.67;3.30;;;3.70;99.90;;;;;;5046324;28;20044;-69
2022/02/26 03:19:08;;;;;;;28.25;4.10;;;3.80;99.90;;;;;;5048262;28;20089;-70
2022/02/26 03:21:34;;;;;;;16.42;3.08;;;3.80;99.90;;;;;;5045619;28;20515;-70
2022/02/26 03:24:00;;;;;;;16.40;3.13;;;3.80;99.90;;;;;;5044478;28;20028;-70
2022/02/26 03:26:25;;;;;;;17.17;3.97;;;3.80;99.90;;;;;;5043894;28;20424;-70
2022/02/26 03:28:51;;;;;;;17.55;3.42;;;3.90;99.90;;;;;;5047673;28;20033;-70
2022/02/26 03:31:16;;;;;;;20.30;5.38;;;3.90;99.90;;;;;;5047717;28;20025;-70
2022/02/26 03:33:42;;;;;;;16.77;4.32;;;3.90;99.90;;;;;;5047321;28;20028;-70
2022/02/26 03:36:07;;;;;;;27.88;7.43;;;3.90;99.90;;;;;;5047427;28;20045;-70
2022/02/26 03:38:33;;;;;;;18.70;4.93;;;3.90;99.90;;;;;;5047337;28;20392;-70
2022/02/26 03:40:58;;;;;;;22.10;3.28;;;4.00;99.90;;;;;;5047488;28;20021;-70
2022/02/26 03:43:24;;;;;;;18.58;3.97;;;4.00;99.90;;;;;;5045274;28;20039;-70
2022/02/26 03:45:49;;;;;;;18.05;3.58;;;4.00;99.90;;;;;;5047678;28;20029;-70
2022/02/26 03:48:15;;;;;;;17.23;4.13;;;4.00;99.90;;;;;;5046633;28;20033;-70
2022/02/26 03:50:41;;;;;;;24.35;8.25;;;4.00;99.90;;;;;;5048830;28;20116;-70
2022/02/26 03:53:08;;;;;;;22.33;3.20;;;4.10;99.90;;;;;;5048209;28;20029;-69
2022/02/26 03:55:34;;;;;;;29.13;6.28;;;4.10;99.90;;;;;;5047213;28;20459;-70
2022/02/26 03:58:00;;;;;;;21.23;4.35;;;4.10;99.90;;;;;;5046240;28;20489;-70
2022/02/26 04:00:26;;;;;;;16.40;2.95;;;4.10;99.90;;;;;;5044859;28;20125;-70
2022/02/26 04:02:51;;;;;;;11.95;3.15;;;4.10;99.90;;;;;;5046910;28;20108;-70
2022/02/26 04:05:17;;;;;;;16.05;3.38;;;4.10;99.90;;;;;;5046979;28;20116;-70
2022/02/26 04:07:42;;;;;;;21.42;3.95;;;4.20;99.90;;;;;;5048270;28;20512;-70
2022/02/26 04:10:09;;;;;;;15.43;3.47;;;4.10;99.90;;;;;;5047521;28;20527;-70
2022/02/26 04:12:35;;;;;;;18.35;3.67;;;4.20;99.90;;;;;;5045672;28;20517;-70
2022/02/26 04:15:00;;;;;;;16.83;3.13;;;4.20;99.90;;;;;;5047139;28;20114;-70
2022/02/26 04:17:26;;;;;;;13.93;3.70;;;4.10;99.90;;;;;;5044116;28;20071;-70
2022/02/26 04:19:51;;;;;;;20.20;4.80;;;4.20;99.90;;;;;;5046470;28;20021;-70
2022/02/26 04:22:17;;;;;;;13.18;3.25;;;4.10;99.90;;;;;;5045762;28;20068;-70
2022/02/26 04:24:43;;;;;;;14.23;3.63;;;4.20;99.90;;;;;;5047707;28;20508;-70
2022/02/26 04:27:09;;;;;;;24.70;3.03;;;4.20;99.90;;;;;;5046329;28;20519;-70
2022/02/26 04:29:34;;;;;;;27.08;6.82;;;4.20;99.90;;;;;;5046225;28;20033;-70
2022/02/26 04:32:00;;;;;;;25.23;5.18;;;4.20;99.90;;;;;;5041002;28;20116;-70
2022/02/26 04:34:25;;;;;;;20.02;4.38;;;4.20;99.90;;;;;;5045302;28;20029;-70
2022/02/26 04:36:51;;;;;;;18.90;3.70;;;4.20;99.90;;;;;;5044803;28;20528;-70
2022/02/26 04:39:16;;;;;;;25.52;5.57;;;4.20;99.90;;;;;;5048117;28;20144;-70
2022/02/26 04:41:42;;;;;;;18.08;3.50;;;4.20;99.90;;;;;;5047199;28;20100;-70
2022/02/26 04:44:07;;;;;;;17.23;3.30;;;4.20;99.90;;;;;;5047106;28;20497;-70
2022/02/26 04:46:33;;;;;;;28.40;4.85;;;4.20;99.90;;;;;;5047612;28;20095;-70
2022/02/26 04:48:58;;;;;;;19.20;3.83;;;4.20;99.90;;;;;;5047000;28;20568;-70
2022/02/26 04:51:24;;;;;;;16.52;4.43;;;4.20;99.90;;;;;;5043134;28;20037;-70
2022/02/26 04:53:50;;;;;;;16.38;4.63;;;4.20;99.90;;;;;;5050423;28;20021;-70
2022/02/26 04:56:15;;;;;;;19.63;3.70;;;4.20;99.90;;;;;;5052474;28;20447;-70
2022/02/26 04:58:41;;;;;;;15.88;3.15;;;4.20;99.90;;;;;;5050954;28;20476;-71
2022/02/26 05:01:06;;;;;;;22.98;3.30;;;4.20;99.90;;;;;;5050984;28;20119;-70
2022/02/26 05:03:32;;;;;;;15.85;3.45;;;4.20;99.90;;;;;;5050534;28;20021;-70
2022/02/26 05:05:57;;;;;;;16.48;2.42;;;4.20;99.90;;;;;;5049808;28;20481;-70
2022/02/26 05:08:23;;;;;;;18.95;4.50;;;4.20;99.90;;;;;;5049739;28;20033;-70
2022/02/26 05:10:49;;;;;;;18.90;3.05;;;4.20;99.90;;;;;;5050718;28;20030;-70
2022/02/26 05:13:15;;;;;;;22.77;3.75;;;4.20;99.90;;;;;;5050114;28;20025;-70
2022/02/26 05:15:40;;;;;;;17.60;3.47;;;4.20;99.90;;;;;;5047897;28;20028;-70
2022/02/26 05:18:06;;;;;;;23.80;3.28;;;4.20;99.90;;;;;;5049412;28;20036;-70
2022/02/26 05:20:32;;;;;;;28.73;4.97;;;4.20;99.90;;;;;;5050991;28;20060;-70
2022/02/26 05:22:57;;;;;;;24.58;3.55;;;4.20;99.90;;;;;;5049301;28;20499;-70
2022/02/26 05:25:23;;;;;;;21.45;4.80;;;4.20;99.90;;;;;;5050614;28;20142;-70
2022/02/26 05:27:49;;;;;;;17.17;3.25;;;4.20;99.90;;;;;;5048997;28;20091;-70
2022/02/26 05:30:16;;;;;;;21.23;3.78;;;4.20;99.90;;;;;;5049476;28;20091;-70
2022/02/26 05:32:42;;;;;;;29.92;4.20;;;4.20;99.90;;;;;;5047491;28;20037;-70
2022/02/26 05:35:08;;;;;;;17.30;5.97;;;4.10;99.90;;;;;;5048066;28;20108;-70
2022/02/26 05:37:34;;;;;;;19.77;3.78;;;4.10;99.90;;;;;;5050249;28;20086;-70
2022/02/26 05:40:00;;;;;;;25.65;4.25;;;4.10;99.90;;;;;;5050379;28;20025;-70
2022/02/26 05:42:25;;;;;;;23.95;4.97;;;4.10;99.90;;;;;;5049992;28;20443;-70
2022/02/26 05:44:51;;;;;;;21.85;4.07;;;4.10;99.90;;;;;;5049211;28;20029;-70
2022/02/26 05:47:16;;;;;;;14.60;2.50;;;4.10;99.90;;;;;;5047945;28;20082;-70
2022/02/26 05:49:42;;;;;;;21.23;4.25;;;4.10;99.90;;;;;;5048978;28;20033;-71
2022/02/26 05:52:09;;;;;;;19.13;3.38;;;4.10;99.90;;;;;;5048328;28;20493;-70
2022/02/26 05:54:35;;;;;;;10.23;3.65;;;4.10;99.90;;;;;;5049333;28;20064;-70
2022/02/26 05:57:02;;;;;;;22.58;3.25;;;4.00;99.90;;;;;;5049537;28;20066;-70
2022/02/26 05:59:27;;;;;;;23.70;4.20;;;4.00;99.90;;;;;;5049414;28;20025;-70
2022/02/26 06:01:53;;;;;;;19.67;3.70;;;4.00;99.90;;;;;;5049767;28;20075;-69
2022/02/26 06:04:18;;;;;;;25.75;3.55;;;4.00;99.90;;;;;;5050028;28;20025;-70
2022/02/26 06:06:44;;;;;;;17.88;5.40;;;4.00;99.90;;;;;;5049634;28;20112;-70
2022/02/26 06:09:09;;;;;;;16.95;4.00;;;4.00;99.90;;;;;;5047937;28;20120;-70
2022/02/26 06:11:35;;;;;;;28.10;7.90;;;4.00;99.90;;;;;;5049743;28;20025;-69
2022/02/26 06:14:00;;;;;;;22.85;8.02;;;4.00;99.90;;;;;;5049250;28;20029;-68
2022/02/26 06:16:26;;;;;;;29.15;5.55;;;4.70;99.90;;;;;;5048505;28;20029;-68
2022/02/26 06:18:51;;;;;;;14.77;3.10;;;5.50;99.90;;;;;;5049092;28;20460;-70
2022/02/26 06:21:17;;;;;;;16.17;3.60;;;6.10;99.90;;;;;;5050212;28;20074;-70
2022/02/26 06:23:42;;;;;;;15.63;3.67;;;5.80;99.90;;;;;;5047998;28;20029;-70
2022/02/26 06:26:08;;;;;;;19.85;4.18;;;5.30;99.90;;;;;;5049287;28;20104;-70
2022/02/26 06:28:33;;;;;;;15.18;3.45;;;4.80;99.90;;;;;;5049354;28;20041;-70
2022/02/26 06:30:59;;;;;;;27.67;4.82;;;4.60;99.90;;;;;;5047055;28;20033;-70
2022/02/26 06:33:24;;;;;;;20.60;4.95;;;4.40;99.90;;;;;;5044656;28;20048;-71
2022/02/26 06:35:50;;;;;;;19.23;4.97;;;4.30;99.90;;;;;;5048605;28;20061;-70
2022/02/26 06:38:15;;;;;;;26.15;4.90;;;4.30;99.90;;;;;;5043979;28;20044;-72
2022/02/26 06:40:41;;;;;;;18.90;4.97;;;4.20;99.90;;;;;;5045505;28;20116;-71
2022/02/26 06:43:07;;;;;;;12.35;3.90;;;4.20;99.90;;;;;;5048303;28;20094;-71
2022/02/26 06:45:32;;;;;;;21.95;3.53;;;4.20;99.90;;;;;;5047546;28;20032;-71
2022/02/26 06:47:58;;;;;;;19.33;4.38;;;4.10;99.90;;;;;;5049059;28;20037;-71
2022/02/26 06:50:23;;;;;;;18.30;3.58;;;4.10;99.90;;;;;;5048319;28;20508;-71
2022/02/26 06:52:49;;;;;;;27.75;4.30;;;4.10;99.90;;;;;;5047341;28;20112;-71
2022/02/26 06:55:15;;;;;;;10.65;3.55;;;4.10;99.90;;;;;;5046373;28;20037;-71
2022/02/26 06:57:41;;;;;;;19.48;4.13;;;4.10;99.90;;;;;;5048885;28;20029;-71
2022/02/26 07:00:08;;;;;;;23.25;8.05;;;4.10;99.90;;;;;;5048527;28;20035;-70
2022/02/26 07:02:34;;;;;;;25.23;4.10;;;4.20;99.90;;;;;;5049695;28;20063;-70
2022/02/26 07:05:00;;;;;;;;;;;4.50;99.90;;;;;;5047492;28;20108;-70
2022/02/26 07:07:25;;;;;;;26.35;4.25;;;4.50;99.90;;;;;;5048400;28;19987;-70
2022/02/26 07:09:51;;;;;;;21.23;3.55;;;4.40;99.90;;;;;;5047780;28;20428;-71
2022/02/26 07:12:16;;;;;;;15.00;3.83;;;4.40;99.90;;;;;;5047247;28;20040;-70
2022/02/26 07:14:43;;;;;;;18.10;4.05;;;4.30;99.90;;;;;;5045559;28;20024;-70
2022/02/26 07:17:08;;;;;;;11.27;3.40;;;4.30;99.90;;;;;;5040181;28;20033;-70
2022/02/26 07:19:34;;;;;;;10.57;3.72;;;4.30;99.90;;;;;;5046364;28;20021;-70
2022/02/26 07:22:00;;;;;;;24.63;5.03;;;4.20;99.90;;;;;;5048988;28;20056;-70
2022/02/26 07:24:26;;;;;;;19.25;6.55;;;4.30;99.90;;;;;;5047047;28;20025;-70
2022/02/26 07:26:52;;;;;;;20.60;4.57;;;4.30;99.90;;;;;;5048455;28;20029;-70
2022/02/26 07:29:17;;;;;;;26.60;4.65;;;4.30;99.90;;;;;;5047899;28;20041;-70
2022/02/26 07:31:43;;;;;;;21.65;5.15;;;4.30;99.90;;;;;;5046101;28;20037;-70
2022/02/26 07:34:08;;;;;;;25.80;3.88;;;4.20;99.90;;;;;;5046278;28;20021;-70
2022/02/26 07:36:34;;;;;;;;;;;4.20;99.90;;;;;;5047864;28;20074;-70
2022/02/26 07:39:01;;;;;;;22.83;5.10;;;4.20;99.90;;;;;;5046941;28;20350;-71
2022/02/26 07:41:26;;;;;;;22.02;5.07;;;4.20;99.90;;;;;;5048583;28;20036;-70
2022/02/26 07:43:52;;;;;;;32.55;6.15;;;4.20;99.90;;;;;;5046766;28;20496;-70
2022/02/26 07:46:17;;;;;;;20.45;5.00;;;4.30;99.90;;;;;;5047030;28;20514;-70
2022/02/26 07:48:43;;;;;;;40.45;6.07;;;4.20;99.90;;;;;;5046773;28;20035;-71
2022/02/26 07:51:08;;;;;;;24.33;3.97;;;4.30;99.90;;;;;;5048159;28;20051;-71
2022/02/26 07:53:34;;;;;;;19.65;5.13;;;4.30;99.90;;;;;;5046706;28;20032;-70
2022/02/26 07:56:00;;;;;;;21.33;3.63;;;4.40;99.90;;;;;;5046877;28;20037;-71
2022/02/26 07:58:25;;;;;;;26.27;8.15;;;4.30;99.90;;;;;;5047999;28;20080;-71
2022/02/26 08:00:51;;;;;;;24.80;4.72;;;4.40;99.90;;;;;;5048159;28;20064;-70
2022/02/26 08:03:16;;;;;;;15.25;3.47;;;4.40;99.90;;;;;;5044950;28;20026;-71
2022/02/26 08:05:42;;;;;;;20.98;4.90;;;4.40;99.90;;;;;;5046966;28;20029;-71
2022/02/26 08:08:07;;;;;;;30.60;5.72;;;4.50;99.90;;;;;;5047686;28;20513;-71
2022/02/26 08:10:33;;;;;;;;;;;4.60;99.90;;;;;;5048748;28;20033;-70
2022/02/26 08:12:58;;;;;;;15.88;4.65;;;4.70;99.90;;;;;;5045899;28;20280;-71
2022/02/26 08:15:26;;;;;;;18.20;3.88;;;4.80;99.90;;;;;;5046230;28;20033;-70
2022/02/26 08:17:52;;;;;;;20.92;6.22;;;4.80;99.90;;;;;;5046566;28;20423;-70
2022/02/26 08:20:19;;;;;;;;;;;4.80;99.90;;;;;;5045321;28;20404;-71
2022/02/26 08:22:46;;;;;;;18.20;6.03;;;4.90;99.90;;;;;;5046583;28;19946;-70
2022/02/26 08:25:13;;;;;;;32.13;6.55;;;4.90;99.90;;;;;;5047508;28;20024;-71
2022/02/26 08:27:39;;;;;;;18.83;3.55;;;4.90;99.90;;;;;;5045854;28;20028;-71
2022/02/26 08:30:06;;;;;;;23.92;4.40;;;4.90;99.90;;;;;;5046172;28;20052;-70
2022/02/26 08:32:31;;;;;;;19.55;4.45;;;4.90;99.90;;;;;;5045549;28;20550;-70
2022/02/26 08:34:57;;;;;;;22.02;4.10;;;4.90;99.90;;;;;;5046923;28;20025;-70
2022/02/26 08:37:22;;;;;;;20.45;3.67;;;5.00;99.90;;;;;;5045259;28;20040;-70
2022/02/26 08:39:48;;;;;;;24.35;8.60;;;5.00;99.90;;;;;;5046801;28;20040;-70
2022/02/26 08:42:14;;;;;;;26.10;5.00;;;5.00;99.90;;;;;;5045848;28;20087;-70
2022/02/26 08:44:40;;;;;;;23.40;3.72;;;5.10;99.90;;;;;;5047068;28;20512;-70
2022/02/26 08:47:07;;;;;;;20.45;3.50;;;5.20;99.90;;;;;;5046608;28;20117;-70
2022/02/26 08:49:33;;;;;;;28.55;4.50;;;5.20;99.90;;;;;;5046221;28;20504;-70
2022/02/26 08:51:58;;;;;;;17.08;3.80;;;5.30;99.90;;;;;;5044266;28;20029;-72
2022/02/26 08:54:24;;;;;;;;;;;5.40;99.90;;;;;;5046953;28;20041;-77
2022/02/26 08:56:50;;;;;;;18.55;3.88;;;5.50;99.90;;;;;;5045211;28;19916;-70
2022/02/26 08:59:15;;;;;;;22.63;4.93;;;6.50;99.90;;;;;;5047033;28;20100;-70
2022/02/26 09:01:41;;;;;;;12.90;3.53;;;6.60;99.90;;;;;;5045593;28;20384;-71
2022/02/26 09:04:07;;;;;;;24.95;4.18;;;6.40;99.90;;;;;;5044955;28;20465;-71
2022/02/26 09:06:34;;;;;;;20.50;7.22;;;6.30;99.90;;;;;;5047355;28;20041;-71
2022/02/26 09:09:00;;;;;;;20.08;4.40;;;6.20;99.90;;;;;;5046243;28;20060;-71
2022/02/26 09:11:26;;;;;;;;;;;6.10;99.90;;;;;;5048455;28;20028;-72
2022/02/26 09:13:51;;;;;;;12.55;3.53;;;6.10;99.90;;;;;;5047883;28;19913;-72
2022/02/26 09:16:17;;;;;;;;;;;6.10;99.90;;;;;;5048486;28;20021;-71
2022/02/26 09:18:43;;;;;;;19.77;4.78;;;6.10;99.90;;;;;;5047734;28;19917;-71
2022/02/26 09:21:09;;;;;;;;;;;6.10;99.90;;;;;;5048025;28;20083;-70
2022/02/26 09:23:36;;;;;;;13.30;2.90;;;6.00;99.90;;;;;;5047305;28;20368;-71
2022/02/26 09:26:04;;;;;;;18.08;3.15;;;5.90;99.90;;;;;;5046554;28;20087;-71
2022/02/26 09:28:32;;;;;;;17.92;2.92;;;5.90;99.90;;;;;;5046330;28;20112;-70
2022/02/26 09:30:57;;;;;;;16.73;4.72;;;5.80;99.90;;;;;;5047241;28;20064;-71
2022/02/26 09:33:23;;;;;;;16.80;4.47;;;5.70;99.90;;;;;;5041996;28;20060;-69
2022/02/26 09:35:48;;;;;;;24.15;6.03;;;5.70;99.90;;;;;;5045263;28;20030;-69
2022/02/26 09:38:14;;;;;;;;;;;5.60;99.90;;;;;;5046934;28;20033;-69
2022/02/26 09:40:39;;;;;;;20.77;3.30;;;5.70;99.90;;;;;;5050458;28;19992;-70
2022/02/26 09:43:05;;;;;;;18.10;3.90;;;5.80;99.90;;;;;;5050718;28;20017;-69
2022/02/26 09:45:31;;;;;;;23.65;5.20;;;5.90;99.90;;;;;;5050189;28;20067;-69
2022/02/26 09:47:56;;;;;;;15.05;5.20;;;6.10;99.90;;;;;;5051002;28;20025;-69
2022/02/26 09:50:22;;;;;;;18.67;4.32;;;6.20;99.90;;;;;;5048264;28;20075;-69
2022/02/26 09:52:50;;;;;;;14.95;3.30;;;6.20;99.90;;;;;;5049328;28;20096;-69
2022/02/26 09:55:16;;;;;;;20.23;3.65;;;6.10;99.90;;;;;;5048581;28;20055;-70
2022/02/26 09:57:42;;;;;;;16.98;4.00;;;6.00;99.90;;;;;;5048620;28;20033;-70
2022/02/26 10:00:09;;;;;;;20.77;4.35;;;6.00;99.90;;;;;;5045896;28;20025;-70
2022/02/26 10:02:37;;;;;;;21.38;3.70;;;6.20;99.90;;;;;;5048904;28;20025;-70
2022/02/26 10:05:07;;;;;;;11.80;4.03;;;6.30;99.90;;;;;;5048977;28;20028;-71
2022/02/26 10:07:33;;;;;;;19.77;3.38;;;6.50;99.90;;;;;;5049588;28;20021;-70
2022/02/26 10:09:59;;;;;;;18.80;3.70;;;6.60;99.90;;;;;;5048484;28;20079;-68
2022/02/26 10:12:37;;;;;;;17.23;2.90;;;6.60;99.90;;;;;;5047875;28;20088;-67
2022/02/26 10:15:06;;;;;;;19.48;4.93;;;6.70;99.90;;;;;;5049049;28;20164;-68
2022/02/26 10:17:36;;;;;;;15.45;4.25;;;6.80;99.90;;;;;;5048199;28;20480;-68
2022/02/26 10:20:08;;;;;;;19.05;3.80;;;6.80;99.90;;;;;;5049250;28;20086;-67
2022/02/26 10:22:36;;;;;;;24.70;4.65;;;6.80;99.90;;;;;;5048916;28;20108;-67
2022/02/26 10:25:10;;;;;;;26.10;5.15;;;6.90;99.90;;;;;;5048730;28;20095;-68
2022/02/26 10:27:42;;;;;;;29.33;9.10;;;7.00;99.90;;;;;;5048838;28;20116;-68
2022/02/26 10:30:09;;;;;;;15.27;4.18;;;7.20;99.90;;;;;;5047791;28;20040;-68
2022/02/26 10:32:35;;;;;;;16.70;3.83;;;7.40;99.90;;;;;;5049458;28;20032;-67
2022/02/26 10:35:01;;;;;;;19.42;4.80;;;7.50;99.90;;;;;;5049879;28;20033;-67
2022/02/26 10:37:26;;;;;;;21.23;4.10;;;7.50;99.90;;;;;;5050166;28;20496;-67
2022/02/26 10:39:55;;;;;;;32.42;8.48;;;7.50;99.90;;;;;;5049671;28;20021;-67
2022/02/26 10:42:22;;;;;;;20.83;3.25;;;7.30;99.90;;;;;;5049812;28;20029;-67
2022/02/26 10:45:00;;;;;;;17.48;3.42;;;7.00;99.90;;;;;;5045720;28;20424;-68
2022/02/26 10:47:30;;;;;;;21.58;3.72;;;6.90;99.90;;;;;;5047352;28;20037;-68
2022/02/26 10:49:56;;;;;;;16.27;3.08;;;6.90;99.90;;;;;;5048835;28;20025;-68
2022/02/26 10:52:22;;;;;;;18.35;5.13;;;6.90;99.90;;;;;;5047651;28;20032;-68
2022/02/26 10:54:51;;;;;;;;;;;7.00;99.90;;;;;;5049029;28;20549;-68
2022/02/26 10:57:17;;;;;;;9.88;3.40;;;7.10;99.90;;;;;;5046899;28;20074;-69
2022/02/26 10:59:45;;;;;;;33.33;5.30;;;7.30;99.90;;;;;;5045245;28;20528;-68
2022/02/26 11:02:22;;;;;;;16.30;4.72;;;7.40;99.90;;;;;;5044737;28;20551;-68
2022/02/26 11:04:49;;;;;;;19.00;6.20;;;7.50;99.90;;;;;;5045814;28;20072;-70
2022/02/26 11:07:15;;;;;;;36.17;5.90;;;7.60;99.90;;;;;;5046154;28;20269;-69
2022/02/26 11:09:43;;;;;;;19.08;3.92;;;7.60;99.90;;;;;;5047096;28;20033;-69
2022/02/26 11:12:13;;;;;;;20.95;4.10;;;7.60;99.90;;;;;;5046279;28;20378;-69
2022/02/26 11:14:45;;;;;;;27.27;5.28;;;7.60;99.90;;;;;;5042764;28;20539;-69
2022/02/26 11:17:13;;;;;;;14.48;4.38;;;7.60;99.90;;;;;;5045075;28;20032;-68
2022/02/26 11:19:40;;;;;;;25.00;4.35;;;7.60;99.90;;;;;;5048505;28;20039;-68
2022/02/26 11:22:06;;;;;;;14.60;4.07;;;7.50;99.90;;;;;;5048377;28;20017;-69
2022/02/26 11:24:32;;;;;;;28.48;4.05;;;7.40;99.90;;;;;;5048485;28;20021;-69
2022/02/26 11:26:58;;;;;;;17.52;4.00;;;7.40;99.90;;;;;;5048135;28;20561;-68
2022/02/26 11:29:24;;;;;;;;;;;7.40;99.90;;;;;;5049101;28;20119;-69
2022/02/26 11:32:11;;;;;;;13.10;3.30;;;7.50;99.90;;;;;;5048164;28;20011;-69
2022/02/26 11:34:37;;;;;;;18.10;3.20;;;7.60;99.90;;;;;;5047979;28;20060;-69
2022/02/26 11:37:08;;;;;;;24.08;4.40;;;7.70;99.90;;;;;;5049135;28;20037;-69
2022/02/26 11:39:39;;;;;;;22.67;4.82;;;7.90;99.90;;;;;;5048217;28;20021;-69
2022/02/26 11:42:13;;;;;;;21.35;2.65;;;7.90;99.00;;;;;;5048715;28;20148;-69
2022/02/26 11:44:51;;;;;;;18.33;2.92;;;7.90;99.50;;;;;;5047202;28;20021;-69
2022/02/26 11:47:18;;;;;;;14.73;3.58;;;8.00;99.50;;;;;;5046317;28;20024;-70
2022/02/26 11:50:08;;;;;;;29.13;5.70;;;8.00;99.80;;;;;;5043211;28;20496;-69
2022/02/26 11:52:39;;;;;;;23.80;6.28;;;8.00;99.50;;;;;;5046137;28;20032;-69
2022/02/26 11:55:21;;;;;;;10.85;2.65;;;8.10;99.90;;;;;;5046140;28;20530;-68
2022/02/26 11:57:51;;;;;;;23.20;5.35;;;8.20;99.30;;;;;;5046602;28;20174;-69
2022/02/26 12:00:18;;;;;;;25.40;4.40;;;8.20;99.50;;;;;;5040792;28;20496;-68
2022/02/26 12:02:44;;;;;;;14.60;3.65;;;8.20;99.40;;;;;;5047207;28;20033;-68
2022/02/26 12:05:10;;;;;;;18.25;4.95;;;8.10;99.00;;;;;;5046852;28;20047;-68
2022/02/26 12:07:39;;;;;;;;;;;8.10;99.40;;;;;;5047374;28;20071;-68
2022/02/26 12:10:10;;;;;;;16.05;3.95;;;8.10;99.50;;;;;;5047527;28;19916;-70
2022/02/26 12:12:39;;;;;;;16.90;4.05;;;8.10;99.40;;;;;;5047455;28;20021;-68
2022/02/26 12:15:27;;;;;;;15.82;3.83;;;8.20;99.60;;;;;;5045701;28;20036;-68
2022/02/26 12:17:55;;;;;;;28.20;5.07;;;8.30;99.50;;;;;;5046517;28;20029;-68
2022/02/26 12:20:30;;;;;;;19.95;3.50;;;8.40;99.30;;;;;;5047942;28;20466;-68
2022/02/26 12:23:08;;;;;;;18.38;3.92;;;8.50;98.70;;;;;;5043968;28;20029;-69
2022/02/26 12:25:41;;;;;;;21.88;5.57;;;8.40;99.20;;;;;;5045863;28;20120;-67
2022/02/26 12:28:11;;;;;;;23.92;3.90;;;8.50;99.40;;;;;;5046205;28;20104;-69
2022/02/26 12:31:00;;;;;;;12.80;3.20;;;8.70;99.10;;;;;;5046134;28;20032;-71
2022/02/26 12:33:25;;;;;;;18.13;3.63;;;8.80;98.80;;;;;;5045687;28;20037;-69
2022/02/26 12:36:06;;;;;;;;;;;8.80;98.50;;;;;;5045906;28;20098;-68
2022/02/26 12:38:32;;;;;;;12.60;2.63;;;8.90;98.30;;;;;;5046278;28;19943;-68
2022/02/26 12:40:58;;;;;;;23.42;3.75;;;8.90;98.40;;;;;;5048052;28;20028;-68
2022/02/26 12:43:29;;;;;;;18.38;4.55;;;9.00;98.40;;;;;;5048037;28;20485;-69
2022/02/26 12:45:55;;;;;;;15.43;3.08;;;9.00;97.60;;;;;;5046943;28;20059;-68
2022/02/26 12:48:22;;;;;;;;;;;8.90;96.90;;;;;;5047704;28;20033;-68
2022/02/26 12:50:48;;;;;;;12.68;3.88;;;8.80;97.40;;;;;;5046383;28;19919;-68